Ana Sayfa
METAR-TAF:

METAR-TAF

Havaalanları :

Hazleton, Pensilvanya, Amerika Birleşik Devletleri

Enlem: 40-59-12N, Boylam: 075-59-42W, yükseklik: 489 m

Güncel hava durumu gözlemi

Rapor saat 21:35 UTC de 23 dakika önce yapıldı.
Rüzgar güney/güneydoğudan 3 kt
Sıcaklık 12°C
Nem 24%
Basınç 1013 hPa
Görüş mesafesi: 16.1 km
7500 ft yükseklikte parçalı bulutlu

METAR: KHZL 242135Z AUTO 15003KT 10SM SCT075 12/M08 A2992 RMK AO2

Saat: 16:58 (21:58 UTC)


TAF: eksik

4.000'den fazla havaalanı için hava durumu gözlemleri ve tahminleri (METAR ve TAF raporları).

Kullanılabilir istasyonlar harita üzerinde sarı ve kırmızı noktalarla gösterilir.

İstasyonun adını görmek için fareyi noktanın üzerinde gezdirin.

Sonrasında hava gözlem ve tahminlerini görmek için tıklayın.

Haritayı değiştirmek için: yaklaştırmak için siyah artı işaretli yeşil düğmeye ve uzaklaştırmak için de eksi işaretli düğmeye hızla tıklayın; bitişik haritalar için yeşil okları kullanın.


METAR-TAF: